Time;durP1;ratioP1;P1;durP2;ratioP2;P2;SDS_P1;SDS_P2;PMS_P1;PMS_P2;Temp;Humidity;BMP_temperature;BMP_pressure;BME280_temperature;BME280_humidity;BME280_pressure;Samples;Min_cycle;Max_cycle;Signal;HPM_P1;HPM_P2
2024/02/24 00:00:38;;;;;;;1.67;1.50;;;15.10;82.10;;;;;;4219632;28;20744;-46
2024/02/24 00:03:19;;;;;;;2.03;1.70;;;15.00;82.40;;;;;;4203857;28;20585;-47
2024/02/24 00:06:01;;;;;;;2.03;1.83;;;15.00;82.70;;;;;;4201371;28;20174;-46
2024/02/24 00:08:43;;;;;;;2.03;1.65;;;15.00;82.70;;;;;;4206424;28;20136;-46
2024/02/24 00:11:24;;;;;;;1.88;1.77;;;15.00;82.70;;;;;;4215282;28;20050;-46
2024/02/24 00:14:05;;;;;;;3.10;2.00;;;15.00;82.70;;;;;;4174565;28;20527;-46
2024/02/24 00:16:46;;;;;;;4.30;2.10;;;15.00;83.00;;;;;;4188736;28;20056;-45
2024/02/24 00:19:27;;;;;;;3.05;2.08;;;15.00;83.10;;;;;;4202489;28;20055;-49
2024/02/24 00:22:09;;;;;;;4.03;2.00;;;14.90;83.20;;;;;;4217448;27;20050;-46
2024/02/24 00:24:51;;;;;;;6.70;2.50;;;15.00;83.30;;;;;;4203305;28;20408;-46
2024/02/24 00:27:32;;;;;;;3.63;2.17;;;14.90;83.20;;;;;;4206737;27;20581;-45
2024/02/24 00:30:14;;;;;;;2.92;2.03;;;14.90;83.40;;;;;;4204134;28;20407;-46
2024/02/24 00:32:55;;;;;;;2.05;1.67;;;14.90;83.20;;;;;;4204050;28;20071;-45
2024/02/24 00:35:38;;;;;;;2.25;1.73;;;14.90;83.30;;;;;;4200093;28;20075;-45
2024/02/24 00:38:19;;;;;;;3.88;2.03;;;14.90;83.40;;;;;;4188696;28;20055;-45
2024/02/24 00:41:01;;;;;;;1.98;1.83;;;14.90;83.50;;;;;;4190237;28;20202;-47
2024/02/24 00:43:42;;;;;;;3.70;1.70;;;14.90;83.70;;;;;;4203490;28;20063;-47
2024/02/24 00:46:24;;;;;;;2.03;1.50;;;14.90;85.00;;;;;;4204231;28;20059;-45
2024/02/24 00:49:05;;;;;;;1.60;1.50;;;14.90;85.40;;;;;;4187687;28;20055;-47
2024/02/24 00:51:46;;;;;;;2.15;1.50;;;15.00;85.70;;;;;;4186530;28;20047;-46
2024/02/24 00:54:27;;;;;;;2.75;1.77;;;15.00;86.60;;;;;;4188916;28;20056;-46
2024/02/24 00:57:09;;;;;;;2.03;1.50;;;15.10;85.90;;;;;;4219448;28;20058;-46
2024/02/24 00:59:51;;;;;;;6.03;1.48;;;15.10;85.80;;;;;;4204725;28;20129;-42
2024/02/24 01:02:32;;;;;;;2.47;1.60;;;15.20;85.80;;;;;;4203476;28;20051;-41
2024/02/24 01:05:13;;;;;;;2.70;1.40;;;15.20;85.30;;;;;;4193322;28;20051;-45
2024/02/24 01:07:56;;;;;;;3.53;1.45;;;15.20;85.20;;;;;;4217040;28;20073;-42
2024/02/24 01:10:37;;;;;;;3.85;1.48;;;15.20;85.90;;;;;;4204699;28;20055;-41
2024/02/24 01:13:19;;;;;;;2.50;1.65;;;15.20;85.20;;;;;;4213299;28;20058;-42
2024/02/24 01:16:01;;;;;;;1.95;1.35;;;15.20;84.90;;;;;;4216330;28;20049;-42
2024/02/24 01:18:42;;;;;;;;;;;15.20;85.00;;;;;;4202446;28;20055;-41
2024/02/24 01:21:23;;;;;;;2.08;1.42;;;15.20;84.90;;;;;;4219300;28;19926;-42
2024/02/24 01:24:04;;;;;;;3.35;1.50;;;15.10;85.60;;;;;;4220445;27;20049;-41
2024/02/24 01:26:45;;;;;;;3.17;1.40;;;15.10;85.30;;;;;;4187420;28;20420;-41
2024/02/24 01:29:27;;;;;;;1.90;1.40;;;15.10;85.60;;;;;;4197726;28;20124;-41
2024/02/24 01:32:08;;;;;;;2.78;2.13;;;15.10;85.80;;;;;;4201978;27;20050;-42
2024/02/24 01:34:49;;;;;;;2.88;1.27;;;15.20;85.70;;;;;;4218058;27;20236;-42
2024/02/24 01:37:30;;;;;;;4.22;1.42;;;15.20;85.60;;;;;;4215888;27;20055;-42
2024/02/24 01:40:12;;;;;;;1.52;1.40;;;15.20;85.60;;;;;;4201676;28;20051;-42
2024/02/24 01:42:53;;;;;;;1.23;1.13;;;15.30;85.80;;;;;;4201447;28;20074;-43
2024/02/24 01:45:35;;;;;;;;;;;15.40;86.10;;;;;;4201702;28;20070;-42
2024/02/24 01:48:17;;;;;;;1.75;1.40;;;15.40;86.10;;;;;;4205571;28;20447;-42
2024/02/24 01:50:59;;;;;;;3.92;1.40;;;15.50;85.70;;;;;;4204725;28;20109;-41
2024/02/24 01:53:41;;;;;;;1.65;1.33;;;15.60;85.60;;;;;;4204280;28;20055;-41
2024/02/24 01:56:25;;;;;;;2.75;1.83;;;15.60;85.20;;;;;;4186366;28;20105;-41
2024/02/24 01:59:06;;;;;;;2.97;1.30;;;15.70;84.80;;;;;;4184371;28;20051;-41
2024/02/24 02:01:49;;;;;;;2.05;1.70;;;15.80;84.40;;;;;;4193471;28;20202;-42
2024/02/24 02:04:30;;;;;;;2.60;1.60;;;15.70;84.40;;;;;;4198115;28;20051;-48
2024/02/24 02:07:11;;;;;;;1.42;1.15;;;15.70;84.50;;;;;;4196797;28;20105;-45
2024/02/24 02:09:56;;;;;;;2.72;1.45;;;15.70;84.50;;;;;;4197013;28;20047;-48
2024/02/24 02:12:37;;;;;;;1.60;1.50;;;15.70;84.60;;;;;;4200070;28;20055;-50
2024/02/24 02:15:18;;;;;;;2.15;1.67;;;15.80;84.70;;;;;;4193485;28;20153;-45
2024/02/24 02:18:01;;;;;;;2.05;1.70;;;15.80;84.50;;;;;;4182046;28;20059;-46
2024/02/24 02:20:42;;;;;;;1.92;1.60;;;15.80;84.60;;;;;;4183134;28;20055;-46
2024/02/24 02:23:24;;;;;;;1.67;1.58;;;15.80;84.70;;;;;;4191548;28;20101;-45
2024/02/24 02:26:05;;;;;;;1.60;1.50;;;15.80;84.60;;;;;;4198286;28;20054;-46
2024/02/24 02:28:46;;;;;;;1.65;1.55;;;15.80;84.40;;;;;;4199617;28;20054;-46
2024/02/24 02:31:27;;;;;;;1.40;1.30;;;15.80;84.50;;;;;;4198548;28;20055;-46
2024/02/24 02:34:08;;;;;;;2.17;1.42;;;15.80;84.60;;;;;;4200775;28;20085;-46
2024/02/24 02:36:49;;;;;;;2.88;1.35;;;15.80;84.50;;;;;;4184008;28;20178;-46
2024/02/24 02:39:32;;;;;;;1.52;1.35;;;15.90;84.60;;;;;;4183388;28;20424;-46
2024/02/24 02:42:13;;;;;;;2.15;1.42;;;15.90;84.40;;;;;;4185185;28;20101;-47
2024/02/24 02:44:55;;;;;;;1.45;1.35;;;15.90;84.30;;;;;;4183798;28;20273;-48
2024/02/24 02:47:38;;;;;;;1.48;1.33;;;15.90;84.20;;;;;;4199267;28;20182;-46
2024/02/24 02:50:19;;;;;;;1.58;1.48;;;15.90;84.20;;;;;;4201557;28;20063;-46
2024/02/24 02:53:00;;;;;;;2.08;1.30;;;15.90;84.40;;;;;;4201300;28;20400;-45
2024/02/24 02:55:42;;;;;;;3.50;1.70;;;15.90;84.40;;;;;;4202654;28;20525;-46
2024/02/24 02:58:23;;;;;;;1.58;1.48;;;15.90;84.10;;;;;;4201401;28;20122;-45
2024/02/24 03:01:04;;;;;;;1.67;1.60;;;15.90;84.10;;;;;;4201122;28;20117;-46
2024/02/24 03:03:45;;;;;;;1.50;1.40;;;15.90;84.00;;;;;;4201266;28;20174;-45
2024/02/24 03:06:26;;;;;;;1.42;1.33;;;15.90;84.10;;;;;;4199868;28;20170;-47
2024/02/24 03:09:07;;;;;;;1.88;1.08;;;15.90;84.30;;;;;;4202906;28;20055;-42
2024/02/24 03:11:49;;;;;;;2.20;1.17;;;15.90;84.20;;;;;;4203733;28;20100;-42
2024/02/24 03:14:30;;;;;;;1.40;1.23;;;15.90;84.00;;;;;;4204414;28;20523;-42
2024/02/24 03:17:12;;;;;;;1.30;1.20;;;15.90;83.80;;;;;;4188478;28;20067;-42
2024/02/24 03:19:52;;;;;;;3.50;1.38;;;15.90;84.00;;;;;;4188148;28;20051;-42
2024/02/24 03:22:33;;;;;;;1.00;1.00;;;15.90;84.00;;;;;;4188090;28;20067;-47
2024/02/24 03:25:15;;;;;;;1.45;1.35;;;15.90;84.00;;;;;;4190157;28;20043;-49
2024/02/24 03:27:57;;;;;;;1.30;1.20;;;15.90;84.20;;;;;;4204497;28;20483;-46
2024/02/24 03:30:37;;;;;;;1.52;1.40;;;15.90;84.00;;;;;;4204005;28;20066;-47
2024/02/24 03:33:18;;;;;;;1.40;1.30;;;15.90;83.90;;;;;;4204873;28;20054;-41
2024/02/24 03:36:00;;;;;;;1.60;1.45;;;16.00;83.80;;;;;;4204124;28;20487;-42
2024/02/24 03:38:41;;;;;;;1.25;1.10;;;16.00;83.90;;;;;;4204103;28;20054;-42
2024/02/24 03:41:22;;;;;;;1.67;1.58;;;16.00;83.70;;;;;;4203654;27;20051;-42
2024/02/24 03:44:04;;;;;;;1.73;1.35;;;16.00;83.50;;;;;;4203319;28;20057;-42
2024/02/24 03:46:45;;;;;;;3.38;1.50;;;16.00;83.40;;;;;;4204415;28;20059;-42
2024/02/24 03:49:26;;;;;;;2.42;1.45;;;16.00;83.40;;;;;;4204853;28;20404;-47
2024/02/24 03:52:07;;;;;;;1.48;1.38;;;16.00;84.60;;;;;;4204499;28;20062;-45
2024/02/24 03:54:48;;;;;;;1.48;1.35;;;16.00;83.40;;;;;;4204699;27;20117;-45
2024/02/24 03:57:29;;;;;;;3.22;1.60;;;16.00;83.50;;;;;;4187399;28;20177;-45
2024/02/24 04:00:13;;;;;;;1.98;1.45;;;16.00;83.40;;;;;;4187644;28;20041;-41
2024/02/24 04:02:54;;;;;;;1.50;1.17;;;16.00;83.30;;;;;;4186799;28;20058;-41
2024/02/24 04:05:35;;;;;;;1.58;1.48;;;16.00;83.40;;;;;;4192462;28;20105;-41
2024/02/24 04:08:16;;;;;;;1.45;1.35;;;16.00;83.10;;;;;;4217047;28;20076;-41
2024/02/24 04:10:57;;;;;;;1.57;1.40;;;16.00;83.20;;;;;;4211440;28;20059;-41
2024/02/24 04:13:38;;;;;;;1.50;1.40;;;16.00;83.30;;;;;;4198750;28;20310;-41
2024/02/24 04:16:21;;;;;;;1.77;1.55;;;16.00;83.30;;;;;;4202355;28;20054;-41
2024/02/24 04:19:02;;;;;;;2.65;1.52;;;16.10;83.20;;;;;;4220323;27;20050;-41
2024/02/24 04:21:43;;;;;;;1.75;1.65;;;16.00;83.20;;;;;;4216502;28;20734;-41
2024/02/24 04:24:24;;;;;;;1.80;1.67;;;16.00;84.10;;;;;;4203953;28;20059;-42
2024/02/24 04:27:05;;;;;;;1.70;1.27;;;16.00;83.40;;;;;;4209477;28;20107;-41
2024/02/24 04:29:46;;;;;;;1.25;1.15;;;15.90;83.50;;;;;;4220508;28;20054;-42
2024/02/24 04:32:29;;;;;;;1.42;1.17;;;16.00;83.50;;;;;;4208366;27;20050;-41
2024/02/24 04:35:11;;;;;;;1.20;1.20;;;16.00;83.20;;;;;;4203737;28;20055;-42
2024/02/24 04:37:52;;;;;;;1.48;1.20;;;16.00;83.00;;;;;;4203375;27;20050;-41
2024/02/24 04:40:35;;;;;;;1.60;1.48;;;16.00;83.00;;;;;;4203660;28;20055;-41
2024/02/24 04:43:16;;;;;;;1.30;1.20;;;16.10;83.10;;;;;;4204762;28;20071;-42
2024/02/24 04:45:57;;;;;;;1.52;1.23;;;16.10;83.10;;;;;;4198068;28;20070;-41
2024/02/24 04:48:39;;;;;;;1.40;1.30;;;16.10;83.00;;;;;;4188434;28;20530;-46
2024/02/24 04:51:21;;;;;;;2.00;1.20;;;16.10;83.00;;;;;;4189637;28;20147;-49
2024/02/24 04:54:02;;;;;;;1.25;1.25;;;16.10;83.00;;;;;;4186741;28;20063;-47
2024/02/24 04:56:43;;;;;;;1.50;1.40;;;16.00;82.90;;;;;;4202874;28;20059;-41
2024/02/24 04:59:24;;;;;;;1.40;1.30;;;16.00;82.70;;;;;;4203491;28;20065;-41
2024/02/24 05:02:05;;;;;;;2.13;1.55;;;16.00;83.10;;;;;;4216687;28;20054;-41
2024/02/24 05:04:47;;;;;;;1.50;1.40;;;15.90;83.20;;;;;;4215791;28;20039;-42
2024/02/24 05:07:28;;;;;;;1.40;1.40;;;16.00;83.20;;;;;;4208996;28;20062;-42
2024/02/24 05:10:09;;;;;;;1.85;1.75;;;16.00;83.00;;;;;;4219394;28;20054;-42
2024/02/24 05:12:50;;;;;;;1.77;1.23;;;16.00;82.90;;;;;;4219111;28;20051;-41
2024/02/24 05:15:31;;;;;;;1.67;1.55;;;16.00;82.80;;;;;;4203330;28;20055;-41
2024/02/24 05:18:13;;;;;;;2.15;1.00;;;16.00;82.60;;;;;;4205073;27;20066;-42
2024/02/24 05:20:55;;;;;;;1.20;1.10;;;16.00;82.70;;;;;;4202387;28;20043;-42
2024/02/24 05:23:37;;;;;;;2.08;1.90;;;16.00;82.50;;;;;;4202410;28;20503;-42
2024/02/24 05:26:25;;;;;;;2.28;1.40;;;16.00;82.70;;;;;;4204242;28;20046;-45
2024/02/24 05:29:06;;;;;;;1.38;1.23;;;16.00;82.50;;;;;;4219900;28;20096;-47
2024/02/24 05:31:47;;;;;;;2.88;1.23;;;16.00;82.80;;;;;;4203150;28;20051;-41
2024/02/24 05:34:28;;;;;;;3.58;1.65;;;16.00;83.10;;;;;;4189153;28;20079;-42
2024/02/24 05:37:10;;;;;;;2.20;1.27;;;16.00;83.00;;;;;;4186301;28;20079;-42
2024/02/24 05:39:52;;;;;;;1.95;1.33;;;16.00;82.80;;;;;;4189973;28;20177;-42
2024/02/24 05:42:33;;;;;;;1.90;1.23;;;16.00;82.70;;;;;;4204546;28;20051;-42
2024/02/24 05:45:14;;;;;;;1.40;1.30;;;16.00;82.80;;;;;;4203277;28;20093;-42
2024/02/24 05:47:56;;;;;;;1.42;1.33;;;15.90;83.00;;;;;;4220142;28;20054;-42
2024/02/24 05:50:37;;;;;;;2.28;1.25;;;15.90;83.00;;;;;;4217922;28;20054;-42
2024/02/24 05:53:20;;;;;;;1.15;1.15;;;16.00;82.80;;;;;;4202075;28;20054;-41
2024/02/24 05:56:01;;;;;;;1.75;1.48;;;16.00;82.50;;;;;;4206102;27;20504;-41
2024/02/24 05:58:42;;;;;;;1.23;1.13;;;16.00;82.40;;;;;;4207498;28;20514;-41
2024/02/24 06:01:23;;;;;;;2.13;1.30;;;16.00;82.30;;;;;;4216931;28;20657;-42
2024/02/24 06:04:05;;;;;;;2.45;1.40;;;16.00;82.20;;;;;;4202760;28;20169;-42
2024/02/24 06:06:48;;;;;;;1.92;1.23;;;16.00;82.30;;;;;;4222916;28;20122;-41
2024/02/24 06:09:31;;;;;;;2.65;1.65;;;16.10;82.20;;;;;;4221880;27;20501;-41
2024/02/24 06:12:12;;;;;;;2.05;1.30;;;16.00;82.30;;;;;;4222719;27;20058;-41
2024/02/24 06:14:53;;;;;;;1.80;1.30;;;15.90;82.50;;;;;;4222671;27;20050;-41
2024/02/24 06:17:34;;;;;;;1.40;1.30;;;15.90;82.50;;;;;;4210538;27;20051;-41
2024/02/24 06:20:15;;;;;;;1.48;1.10;;;15.90;82.60;;;;;;4212662;27;20158;-42
2024/02/24 06:22:56;;;;;;;1.15;1.13;;;15.90;82.50;;;;;;4221490;27;20514;-41
2024/02/24 06:25:38;;;;;;;1.85;1.20;;;16.00;82.90;;;;;;4222431;27;20181;-41
2024/02/24 06:28:19;;;;;;;1.52;1.42;;;16.00;82.70;;;;;;4221672;27;20046;-41
2024/02/24 06:31:00;;;;;;;2.17;1.20;;;16.00;82.50;;;;;;4221167;28;20054;-41
2024/02/24 06:33:41;;;;;;;1.73;1.13;;;16.10;82.20;;;;;;4222442;27;20395;-42
2024/02/24 06:36:22;;;;;;;1.20;1.15;;;16.10;82.10;;;;;;4222367;28;20135;-41
2024/02/24 06:39:03;;;;;;;1.58;1.45;;;16.00;82.00;;;;;;4225857;27;20075;-42
2024/02/24 06:41:46;;;;;;;1.35;1.15;;;16.00;82.00;;;;;;4189097;28;20075;-42
2024/02/24 06:44:27;;;;;;;1.20;1.20;;;16.10;82.10;;;;;;4188934;28;20051;-42
2024/02/24 06:47:08;;;;;;;2.70;1.23;;;16.10;82.00;;;;;;4187972;28;20557;-48
2024/02/24 06:49:53;;;;;;;1.33;1.23;;;16.00;82.00;;;;;;4188040;28;20051;-47
2024/02/24 06:52:34;;;;;;;2.65;1.40;;;16.00;81.30;;;;;;4202717;28;20465;-47
2024/02/24 06:55:15;;;;;;;2.20;1.50;;;16.10;81.20;;;;;;4223426;27;20108;-46
2024/02/24 06:57:58;;;;;;;;;;;16.00;81.30;;;;;;4187312;28;20055;-46
2024/02/24 07:00:39;;;;;;;2.90;1.73;;;16.00;81.50;;;;;;4189650;28;19928;-46
2024/02/24 07:03:20;;;;;;;2.35;1.48;;;15.90;81.70;;;;;;4190131;28;20105;-42
2024/02/24 07:06:01;;;;;;;3.53;1.85;;;15.80;81.80;;;;;;4189713;28;20047;-43
2024/02/24 07:08:43;;;;;;;3.03;1.63;;;15.80;81.90;;;;;;4204586;28;20059;-46
2024/02/24 07:11:24;;;;;;;2.60;1.40;;;15.80;81.90;;;;;;4205518;28;20059;-45
2024/02/24 07:14:07;;;;;;;1.40;1.30;;;15.80;81.70;;;;;;4199822;28;20059;-48
2024/02/24 07:16:50;;;;;;;1.55;1.45;;;15.80;81.80;;;;;;4205518;28;20055;-46
2024/02/24 07:19:31;;;;;;;1.52;1.45;;;15.80;81.80;;;;;;4203632;28;20182;-45
2024/02/24 07:22:14;;;;;;;1.75;1.60;;;15.80;81.70;;;;;;4206765;28;20058;-46
2024/02/24 07:24:55;;;;;;;1.48;1.38;;;15.80;81.70;;;;;;4205968;28;20059;-46
2024/02/24 07:27:36;;;;;;;1.42;1.42;;;15.80;81.90;;;;;;4217842;27;20058;-46
2024/02/24 07:30:19;;;;;;;1.75;1.65;;;15.80;81.90;;;;;;4238736;27;20058;-46
2024/02/24 07:33:00;;;;;;;1.63;1.50;;;15.80;81.90;;;;;;4210136;27;20050;-47
2024/02/24 07:35:42;;;;;;;;;;;15.80;82.00;;;;;;4204946;28;20051;-47
2024/02/24 07:38:23;;;;;;;2.30;1.58;;;15.80;82.40;;;;;;4207581;28;19927;-46
2024/02/24 07:41:04;;;;;;;2.15;1.60;;;15.80;82.00;;;;;;4204429;28;20051;-46
2024/02/24 07:43:45;;;;;;;1.67;1.58;;;15.90;80.40;;;;;;4216997;28;20042;-45
2024/02/24 07:46:29;;;;;;;2.45;1.90;;;15.90;78.80;;;;;;4220830;27;20058;-46
2024/02/24 07:49:10;;;;;;;4.65;1.90;;;15.90;77.80;;;;;;4219546;27;20050;-48
2024/02/24 07:51:51;;;;;;;2.20;1.77;;;15.90;77.80;;;;;;4187935;28;20055;-45
2024/02/24 07:54:32;;;;;;;1.80;1.67;;;15.90;76.50;;;;;;4212623;27;20055;-47
2024/02/24 07:57:14;;;;;;;4.35;2.22;;;15.90;76.00;;;;;;4183552;28;20063;-45
2024/02/24 07:59:55;;;;;;;2.80;2.00;;;15.90;75.70;;;;;;4186227;28;20141;-46
2024/02/24 08:02:38;;;;;;;3.88;2.35;;;15.90;75.10;;;;;;4182186;28;20507;-45
2024/02/24 08:05:19;;;;;;;2.63;2.10;;;15.90;74.50;;;;;;4185659;28;20039;-45
2024/02/24 08:08:00;;;;;;;5.50;2.85;;;15.80;73.70;;;;;;4183192;28;20149;-47
2024/02/24 08:10:42;;;;;;;3.08;2.35;;;15.80;72.80;;;;;;4189099;28;20055;-42
2024/02/24 08:13:24;;;;;;;3.55;2.50;;;15.80;72.50;;;;;;4199445;28;20055;-44
2024/02/24 08:16:05;;;;;;;2.72;2.53;;;15.80;71.80;;;;;;4184885;28;20059;-42
2024/02/24 08:18:49;;;;;;;2.92;2.70;;;15.80;71.40;;;;;;4204191;28;20054;-42
2024/02/24 08:21:36;;;;;;;2.80;2.60;;;15.80;71.50;;;;;;4216411;28;20082;-43
2024/02/24 08:24:17;;;;;;;2.88;2.60;;;15.80;71.30;;;;;;4217524;27;20173;-44
2024/02/24 08:26:58;;;;;;;2.40;2.30;;;15.80;71.00;;;;;;4214465;27;20573;-42
2024/02/24 08:29:39;;;;;;;2.42;2.30;;;15.80;70.70;;;;;;4209888;27;20070;-43
2024/02/24 08:32:20;;;;;;;2.50;2.30;;;15.80;70.40;;;;;;4205416;28;20597;-42
2024/02/24 08:35:02;;;;;;;2.92;2.55;;;15.70;70.60;;;;;;4184620;27;20095;-43
2024/02/24 08:37:44;;;;;;;22.95;21.17;;;15.70;70.80;;;;;;4185279;28;20074;-42
2024/02/24 08:40:25;;;;;;;2.60;2.50;;;15.60;70.90;;;;;;4182898;28;20058;-43
2024/02/24 08:43:06;;;;;;;2.17;2.00;;;15.60;71.10;;;;;;4199169;28;20047;-42
2024/02/24 08:45:47;;;;;;;3.50;2.50;;;15.60;70.90;;;;;;4196473;28;20503;-42
2024/02/24 08:48:28;;;;;;;2.63;2.42;;;15.60;70.70;;;;;;4189989;28;20514;-43
2024/02/24 08:51:11;;;;;;;2.97;2.40;;;15.60;72.00;;;;;;4186703;28;20047;-42
2024/02/24 08:53:52;;;;;;;2.90;2.55;;;15.50;70.80;;;;;;4194161;28;20063;-42
2024/02/24 08:56:33;;;;;;;3.42;2.58;;;15.60;70.90;;;;;;4185580;28;20129;-42
2024/02/24 08:59:14;;;;;;;3.42;2.90;;;15.60;70.70;;;;;;4186838;28;20075;-42
2024/02/24 09:01:55;;;;;;;3.38;2.60;;;15.60;70.70;;;;;;4188899;28;20052;-45
2024/02/24 09:04:39;;;;;;;3.25;2.92;;;15.60;70.40;;;;;;4185661;28;20056;-46
2024/02/24 09:07:22;;;;;;;4.40;2.95;;;15.60;70.20;;;;;;4192022;28;20058;-45
2024/02/24 09:10:03;;;;;;;2.85;2.70;;;15.60;70.20;;;;;;4184019;28;20055;-46
2024/02/24 09:12:46;;;;;;;2.75;2.50;;;15.60;69.90;;;;;;4200541;28;20807;-50
2024/02/24 09:15:27;;;;;;;2.78;2.55;;;15.60;69.70;;;;;;4217733;27;20055;-48
2024/02/24 09:18:10;;;;;;;2.83;2.63;;;15.60;69.60;;;;;;4196598;28;20051;-49
2024/02/24 09:20:52;;;;;;;2.67;2.53;;;15.60;69.70;;;;;;4219110;28;20050;-44
2024/02/24 09:23:34;;;;;;;3.42;3.15;;;15.60;70.80;;;;;;4212163;28;20503;-47
2024/02/24 09:26:16;;;;;;;3.60;3.15;;;15.60;71.10;;;;;;4217955;28;20050;-45
2024/02/24 09:29:00;;;;;;;3.00;2.80;;;15.60;71.80;;;;;;4222807;27;20084;-46
2024/02/24 09:31:44;;;;;;;3.35;3.15;;;15.60;72.30;;;;;;4210667;27;20070;-46
2024/02/24 09:34:25;;;;;;;3.40;3.10;;;15.60;72.80;;;;;;4215833;28;20058;-46
2024/02/24 09:37:06;;;;;;;2.90;2.70;;;15.80;73.20;;;;;;4214740;28;20050;-48
2024/02/24 09:39:49;;;;;;;5.85;3.83;;;16.00;72.70;;;;;;4214753;27;20062;-46
2024/02/24 09:42:30;;;;;;;3.40;3.10;;;16.40;71.20;;;;;;4219181;28;20174;-46
2024/02/24 09:45:13;;;;;;;3.20;2.90;;;16.90;69.60;;;;;;4186720;28;20056;-46
2024/02/24 09:47:55;;;;;;;3.17;2.90;;;17.30;68.00;;;;;;4187996;28;20163;-43
2024/02/24 09:50:36;;;;;;;3.20;3.00;;;17.80;66.20;;;;;;4185179;28;20519;-45
2024/02/24 09:53:19;;;;;;;3.47;3.28;;;18.20;64.30;;;;;;4187513;28;20451;-47
2024/02/24 09:56:04;;;;;;;4.90;3.90;;;18.60;63.20;;;;;;4202544;28;20047;-49
2024/02/24 09:58:46;;;;;;;3.25;2.95;;;18.90;61.80;;;;;;4206687;27;20083;-46
2024/02/24 10:01:27;;;;;;;3.80;3.25;;;19.20;61.20;;;;;;4213434;28;20146;-47
2024/02/24 10:04:08;;;;;;;3.22;2.97;;;19.30;60.60;;;;;;4210611;27;20051;-46
2024/02/24 10:06:49;;;;;;;3.78;3.42;;;19.50;60.50;;;;;;4218025;28;20066;-40
2024/02/24 10:09:31;;;;;;;3.47;3.08;;;19.50;60.60;;;;;;4224311;27;20051;-41
2024/02/24 10:12:14;;;;;;;3.55;3.33;;;19.60;60.30;;;;;;4212680;27;20054;-41
2024/02/24 10:14:55;;;;;;;3.55;3.25;;;19.60;59.50;;;;;;4194618;28;20048;-42
2024/02/24 10:17:39;;;;;;;3.90;3.53;;;19.60;59.70;;;;;;4194087;28;20512;-43
2024/02/24 10:20:20;;;;;;;4.20;3.90;;;19.50;59.50;;;;;;4179828;28;20117;-42
2024/02/24 10:23:01;;;;;;;3.83;3.30;;;19.50;59.70;;;;;;4193228;28;20064;-42
2024/02/24 10:25:42;;;;;;;3.53;3.33;;;19.50;60.00;;;;;;4203528;28;20058;-41
2024/02/24 10:28:26;;;;;;;4.00;3.72;;;19.50;59.90;;;;;;4204351;28;20064;-42
2024/02/24 10:31:07;;;;;;;5.13;4.70;;;19.50;59.80;;;;;;4203179;28;20173;-44
2024/02/24 10:33:49;;;;;;;3.80;3.60;;;19.60;59.60;;;;;;4220455;28;20053;-43
2024/02/24 10:36:31;;;;;;;3.50;3.30;;;19.80;58.70;;;;;;4225390;27;20127;-43
2024/02/24 10:39:15;;;;;;;4.97;3.88;;;19.90;57.70;;;;;;4239219;27;20110;-43
2024/02/24 10:41:57;;;;;;;4.63;3.88;;;20.00;57.50;;;;;;4237694;27;20058;-42
2024/02/24 10:44:41;;;;;;;4.43;4.10;;;20.20;56.20;;;;;;4233718;27;20150;-42
2024/02/24 10:47:22;;;;;;;4.40;4.10;;;20.30;55.90;;;;;;4211518;28;20055;-45
2024/02/24 10:50:05;;;;;;;4.72;4.32;;;20.40;55.70;;;;;;4204707;28;20193;-46
2024/02/24 10:52:47;;;;;;;4.03;3.72;;;20.40;55.90;;;;;;4205026;28;20610;-43
2024/02/24 10:55:30;;;;;;;7.00;3.70;;;20.50;56.20;;;;;;4205326;28;20082;-42
2024/02/24 10:58:18;;;;;;;4.07;3.78;;;20.50;55.60;;;;;;4205266;28;20051;-42
2024/02/24 11:01:00;;;;;;;4.30;3.95;;;20.50;54.80;;;;;;4221950;27;20580;-45
2024/02/24 11:03:42;;;;;;;4.32;3.92;;;20.40;54.40;;;;;;4189748;28;20438;-44
2024/02/24 11:06:44;;;;;;;3.90;3.45;;;20.30;54.50;;;;;;4203346;28;20062;-43
2024/02/24 11:09:34;;;;;;;3.78;2.92;;;20.20;54.50;;;;;;4237492;27;20089;-44
2024/02/24 11:12:16;;;;;;;3.55;3.33;;;20.10;54.30;;;;;;4219807;27;20190;-42
2024/02/24 11:14:57;;;;;;;3.67;3.38;;;20.00;54.60;;;;;;4206641;28;20155;-43
2024/02/24 11:17:51;;;;;;;4.00;3.67;;;20.00;54.20;;;;;;4188096;28;20047;-44
2024/02/24 11:20:55;;;;;;;2.97;2.78;;;20.10;54.20;;;;;;4190272;28;20060;-43
2024/02/24 11:23:41;;;;;;;3.40;3.10;;;20.20;54.60;;;;;;4191194;28;20059;-43
2024/02/24 11:26:29;;;;;;;8.68;5.22;;;20.30;54.40;;;;;;4204848;28;20048;-42
2024/02/24 11:29:17;;;;;;;4.40;3.88;;;20.40;54.10;;;;;;4205122;28;20051;-42
2024/02/24 11:32:06;;;;;;;19.33;11.10;;;20.50;54.00;;;;;;4219631;27;20062;-42
2024/02/24 11:34:49;;;;;;;19.40;9.02;;;20.50;54.50;;;;;;4206546;28;20154;-44
2024/02/24 11:37:31;;;;;;;16.83;8.13;;;20.50;54.40;;;;;;4232995;27;20415;-42
2024/02/24 11:40:13;;;;;;;13.90;8.40;;;20.50;54.70;;;;;;4237503;27;20474;-41
2024/02/24 11:42:56;;;;;;;9.95;7.43;;;20.50;54.80;;;;;;4239225;27;20050;-41
2024/02/24 11:45:36;;;;;;;9.82;5.70;;;20.50;54.30;;;;;;4238371;27;20107;-41
2024/02/24 11:48:19;;;;;;;12.52;6.55;;;20.50;54.00;;;;;;4227112;27;20396;-41
2024/02/24 11:51:01;;;;;;;8.52;5.80;;;20.50;55.10;;;;;;4232822;27;20084;-42
2024/02/24 11:53:43;;;;;;;7.00;4.65;;;20.40;54.00;;;;;;4189662;28;20051;-43
2024/02/24 11:56:25;;;;;;;6.60;4.05;;;20.20;53.80;;;;;;4237854;27;20049;-43
2024/02/24 11:59:09;;;;;;;7.88;4.70;;;20.10;54.70;;;;;;4193477;28;20050;-43
2024/02/24 12:01:49;;;;;;;4.22;3.83;;;20.00;54.40;;;;;;4192311;28;20078;-43
2024/02/24 12:04:30;;;;;;;9.40;3.85;;;19.90;53.80;;;;;;4196688;28;20100;-41
2024/02/24 12:07:13;;;;;;;4.13;3.70;;;19.90;54.30;;;;;;4237972;27;20050;-43
2024/02/24 12:09:54;;;;;;;3.72;3.33;;;19.90;54.10;;;;;;4191804;28;20055;-43
2024/02/24 12:12:36;;;;;;;5.82;4.18;;;19.90;53.80;;;;;;4207617;28;20658;-43
2024/02/24 12:15:17;;;;;;;4.22;3.67;;;19.90;54.00;;;;;;4203621;28;20108;-42
2024/02/24 12:18:00;;;;;;;3.80;3.45;;;19.90;54.50;;;;;;4207190;28;20051;-43
2024/02/24 12:20:42;;;;;;;4.55;3.75;;;19.90;54.70;;;;;;4189997;28;20412;-42
2024/02/24 12:23:28;;;;;;;8.05;4.15;;;19.80;54.70;;;;;;4207441;28;20553;-42
2024/02/24 12:26:14;;;;;;;4.07;2.97;;;19.90;55.20;;;;;;4193314;28;20051;-42
2024/02/24 12:28:55;;;;;;;3.60;3.30;;;19.80;55.10;;;;;;4202893;28;20124;-50
2024/02/24 12:31:36;;;;;;;;;;;19.90;54.80;;;;;;4186414;28;20043;-45
2024/02/24 12:34:17;;;;;;;3.80;2.57;;;19.90;54.70;;;;;;4187573;28;20041;-44
2024/02/24 12:36:58;;;;;;;2.90;2.60;;;19.90;54.50;;;;;;4188654;28;20087;-46
2024/02/24 12:39:44;;;;;;;6.53;2.50;;;19.90;54.70;;;;;;4204221;28;20051;-43
2024/02/24 12:42:26;;;;;;;3.72;2.38;;;19.90;54.00;;;;;;4187409;28;20083;-45
2024/02/24 12:45:09;;;;;;;3.03;2.70;;;20.00;53.50;;;;;;4203654;28;20523;-43
2024/02/24 12:47:50;;;;;;;6.82;6.22;;;20.10;53.80;;;;;;4201940;28;20059;-42
2024/02/24 12:50:31;;;;;;;2.45;2.20;;;20.20;54.20;;;;;;4188951;28;20141;-43
2024/02/24 12:53:13;;;;;;;3.10;2.72;;;20.30;53.50;;;;;;4220703;28;20124;-43
2024/02/24 12:55:55;;;;;;;2.58;2.38;;;20.40;53.40;;;;;;4204865;28;20043;-44
2024/02/24 12:58:38;;;;;;;2.22;2.03;;;20.40;53.10;;;;;;4203379;28;20130;-43
2024/02/24 13:01:20;;;;;;;1.95;1.80;;;20.40;52.70;;;;;;4205914;28;20055;-46
2024/02/24 13:04:01;;;;;;;;;;;20.40;52.30;;;;;;4190238;28;20419;-46
2024/02/24 13:06:41;;;;;;;1.67;1.58;;;20.40;51.70;;;;;;4188717;28;19931;-45
2024/02/24 13:09:23;;;;;;;1.70;1.30;;;20.40;51.20;;;;;;4190612;28;20064;-44
2024/02/24 13:12:06;;;;;;;1.33;1.25;;;20.40;50.50;;;;;;4219351;28;20116;-42
2024/02/24 13:14:48;;;;;;;1.83;1.40;;;20.40;50.00;;;;;;4219487;27;20496;-42
2024/02/24 13:17:28;;;;;;;1.20;1.00;;;20.50;49.70;;;;;;4201300;28;20063;-43
2024/02/24 13:20:10;;;;;;;1.45;1.20;;;20.50;50.80;;;;;;4191428;28;20111;-44
2024/02/24 13:22:51;;;;;;;1.33;1.23;;;20.50;50.50;;;;;;4191914;28;20093;-45
2024/02/24 13:25:32;;;;;;;1.50;1.40;;;20.40;51.60;;;;;;4192452;28;20631;-45
2024/02/24 13:28:14;;;;;;;1.33;1.23;;;20.40;51.70;;;;;;4203766;28;20104;-46
2024/02/24 13:30:56;;;;;;;1.65;1.55;;;20.20;52.40;;;;;;4204110;28;20055;-45
2024/02/24 13:33:37;;;;;;;2.15;1.92;;;20.00;53.30;;;;;;4195552;28;20051;-45
2024/02/24 13:36:18;;;;;;;1.83;1.17;;;19.90;54.30;;;;;;4229366;27;20184;-47
2024/02/24 13:38:58;;;;;;;1.80;1.45;;;19.80;55.10;;;;;;4208036;27;20070;-46
2024/02/24 13:41:40;;;;;;;1.58;1.48;;;19.70;55.60;;;;;;4236253;27;20099;-46
2024/02/24 13:44:22;;;;;;;1.40;1.35;;;19.70;56.20;;;;;;4237959;27;20070;-47
2024/02/24 13:47:04;;;;;;;2.22;1.73;;;19.60;56.30;;;;;;4189517;28;20533;-46
2024/02/24 13:49:44;;;;;;;2.17;1.98;;;19.60;56.80;;;;;;4193532;28;20056;-45
2024/02/24 13:52:26;;;;;;;2.15;1.83;;;19.60;57.10;;;;;;4195791;28;20460;-46
2024/02/24 13:55:07;;;;;;;2.78;1.95;;;19.60;57.50;;;;;;4193049;28;20097;-46
2024/02/24 13:57:48;;;;;;;2.15;2.00;;;19.60;57.60;;;;;;4202937;27;20054;-46
2024/02/24 14:00:31;;;;;;;1.77;1.67;;;19.60;57.40;;;;;;4208029;28;20140;-45
2024/02/24 14:03:12;;;;;;;1.95;1.65;;;19.60;57.70;;;;;;4207853;28;20112;-45